Portada
METAR-TAF:

METAR-TAF

Aeropuertos :

Bric della Croce

Turín, Italia

latitud: 45-02N, longitud: 007-44E, altitud: 709 m

Observación

El informe se hizo hace 1 hora y 7 minutos, a las 01:55 UTC
Viento 7 kt del oeste
Temperatura 2°C
Humedad 37%
Presión 1009 hPa
Visibilidad 10 km o más
sin nubes por debajo de 1500 m y sin presencia de cumulonimbus.

METAR: LIMK 270155Z 28007KT CAVOK 02/M11 Q1009 RMK SKC VAL NIL VIS MIN 9999

Hora: 04:02 (03:02 UTC)


TAF: falta

Observaciones y pronósticos meteorológicos de más de 4000 aeropuertos (mensajes METAR y TAF).

Los puntos amarillos y rojos representan las estaciones disponibles.

Ponga el ratón en el punto deseado para ver el nombre de la estación.

Haga clic para ver las observaciones y los pronósticos meteorológicos.

Para cambiar el mapa : haga clic en los botones verdes con una cruz de color negro para hacer un zoom, en el botón verde con un guión para alejar o en las flechas verdes para mapas adyacentes.


METAR-TAF: